createdAt,value
2023-05-03T00:01:58.248Z,6.13
2023-05-03T00:04:31.865Z,6.15
2023-05-03T00:07:04.152Z,6.43
2023-05-03T00:09:38.808Z,5.75
2023-05-03T00:12:10.846Z,6.65
2023-05-03T00:14:42.940Z,5.55
2023-05-03T00:17:15.028Z,6.65
2023-05-03T00:19:47.654Z,7.20
2023-05-03T00:22:19.746Z,4.95
2023-05-03T00:24:54.392Z,4.38
2023-05-03T00:27:26.932Z,4.63
2023-05-03T00:29:59.057Z,7.93
2023-05-03T00:32:31.165Z,7.15
2023-05-03T00:35:03.634Z,5.70
2023-05-03T00:37:37.403Z,7.40
2023-05-03T00:40:13.533Z,4.97
2023-05-03T00:42:46.805Z,5.95
2023-05-03T00:45:19.163Z,6.85
2023-05-03T00:47:51.436Z,7.03
2023-05-03T00:50:23.606Z,5.82
2023-05-03T00:52:55.949Z,4.32
2023-05-03T00:55:32.216Z,6.40
2023-05-03T00:58:04.318Z,7.05
2023-05-03T01:00:36.399Z,7.82
2023-05-03T01:03:08.562Z,9.23
2023-05-03T01:05:45.142Z,8.85
2023-05-03T01:08:28.880Z,5.78
2023-05-03T01:11:08.680Z,7.88
2023-05-03T01:13:52.417Z,8.63
2023-05-03T01:16:31.477Z,6.53
2023-05-03T01:19:13.656Z,9.20
2023-05-03T01:21:50.483Z,7.15
2023-05-03T01:24:24.190Z,5.90
2023-05-03T01:26:59.440Z,8.02
2023-05-03T01:29:31.709Z,9.55
2023-05-03T01:32:09.337Z,6.53
2023-05-03T01:34:49.355Z,7.63
2023-05-03T01:37:22.700Z,8.32
2023-05-03T01:39:59.830Z,8.38
2023-05-03T01:42:36.842Z,6.00
2023-05-03T01:45:11.202Z,8.85
2023-05-03T01:47:43.314Z,6.47
2023-05-03T01:50:15.697Z,6.13
2023-05-03T01:52:47.887Z,6.80
2023-05-03T01:55:19.948Z,10.45
2023-05-03T01:57:54.644Z,6.70
2023-05-03T02:00:27.112Z,4.22
2023-05-03T02:02:59.233Z,6.18
2023-05-03T02:05:31.466Z,6.32
2023-05-03T02:08:03.819Z,8.55
2023-05-03T02:10:35.898Z,6.95
2023-05-03T02:13:10.650Z,6.65
2023-05-03T02:15:42.738Z,6.32
2023-05-03T02:18:16.594Z,8.82
2023-05-03T02:20:48.685Z,7.25
2023-05-03T02:23:21.136Z,7.40
2023-05-03T02:25:53.182Z,9.13
2023-05-03T02:28:27.892Z,8.82
2023-05-03T02:31:00.234Z,7.57
2023-05-03T02:33:32.353Z,8.13
2023-05-03T02:36:05.123Z,8.65
2023-05-03T02:38:37.270Z,7.50
2023-05-03T02:41:09.410Z,9.80
2023-05-03T02:43:44.090Z,9.23
2023-05-03T02:46:16.188Z,6.78
2023-05-03T02:48:48.317Z,11.50
2023-05-03T02:51:20.962Z,11.18
2023-05-03T02:53:53.051Z,8.52
2023-05-03T02:56:26.705Z,8.90
2023-05-03T02:59:01.578Z,12.65
2023-05-03T03:01:34.250Z,8.85
2023-05-03T03:04:06.656Z,6.93
2023-05-03T03:06:38.874Z,11.82
2023-05-03T03:09:10.962Z,8.55
2023-05-03T03:11:43.036Z,10.68
2023-05-03T03:14:18.014Z,11.82
2023-05-03T03:16:51.647Z,11.60
2023-05-03T03:19:23.967Z,8.05
2023-05-03T03:21:56.371Z,9.63
2023-05-03T03:24:28.448Z,8.82
2023-05-03T03:27:00.640Z,8.93
2023-05-03T03:29:35.898Z,10.57
2023-05-03T03:32:08.027Z,9.73
2023-05-03T03:34:40.079Z,9.48
2023-05-03T03:37:12.111Z,10.73
2023-05-03T03:39:45.597Z,8.40
2023-05-03T03:42:19.134Z,13.40
2023-05-03T03:44:54.361Z,8.68
2023-05-03T03:47:27.130Z,10.02
2023-05-03T03:50:00.058Z,9.32
2023-05-03T03:52:32.144Z,10.13
2023-05-03T03:55:04.866Z,17.70
2023-05-03T03:57:36.918Z,20.52
2023-05-03T04:00:13.251Z,24.10
2023-05-03T04:02:47.151Z,23.85
2023-05-03T04:05:20.199Z,21.67
2023-05-03T04:07:53.259Z,15.10
2023-05-03T04:10:25.684Z,11.23
2023-05-03T04:12:57.762Z,10.23
2023-05-03T04:18:04.328Z,9.32
2023-05-03T04:20:36.940Z,12.85
2023-05-03T04:23:09.023Z,8.88
2023-05-03T04:25:46.817Z,10.38
2023-05-03T04:28:19.444Z,9.60
2023-05-03T04:30:54.188Z,9.93
2023-05-03T04:33:27.489Z,10.77
2023-05-03T04:36:02.044Z,10.77
2023-05-03T04:38:34.275Z,9.63
2023-05-03T04:41:06.741Z,7.78
2023-05-03T04:43:46.337Z,8.70
2023-05-03T04:46:26.049Z,6.05
2023-05-03T04:48:58.176Z,9.45
2023-05-03T04:51:30.311Z,10.63
2023-05-03T04:54:02.345Z,10.93
2023-05-03T04:56:35.873Z,8.80
2023-05-03T04:59:08.744Z,10.52
2023-05-03T05:01:43.393Z,11.65
2023-05-03T05:04:15.496Z,11.60
2023-05-03T05:06:51.366Z,12.57
2023-05-03T05:09:24.696Z,9.52
2023-05-03T05:11:57.505Z,12.43
2023-05-03T05:14:31.311Z,12.13
2023-05-03T05:17:05.992Z,10.45
2023-05-03T05:19:41.982Z,14.70
2023-05-03T05:22:14.116Z,11.57
2023-05-03T05:24:46.154Z,14.70
2023-05-03T05:27:18.277Z,11.98
2023-05-03T05:29:50.408Z,12.07
2023-05-03T05:32:25.068Z,14.65
2023-05-03T05:34:57.108Z,7.18
2023-05-03T05:37:29.164Z,10.05
2023-05-03T05:40:01.652Z,7.97
2023-05-03T05:42:33.987Z,8.57
2023-05-03T05:45:09.874Z,11.02
2023-05-03T05:47:44.538Z,13.30
2023-05-03T05:50:18.796Z,12.77
2023-05-03T05:52:53.275Z,8.73
2023-05-03T05:55:25.450Z,9.50
2023-05-03T05:57:57.483Z,10.18
2023-05-03T06:00:30.680Z,10.32
2023-05-03T06:03:05.416Z,10.57
2023-05-03T06:05:37.607Z,12.27
2023-05-03T06:08:11.102Z,15.13
2023-05-03T06:10:43.189Z,12.20
2023-05-03T06:13:15.283Z,10.18
2023-05-03T06:15:47.373Z,10.70
2023-05-03T06:18:22.043Z,15.27
2023-05-03T06:20:54.087Z,10.75
2023-05-03T06:23:28.232Z,9.85
2023-05-03T06:26:00.262Z,9.38
2023-05-03T06:28:32.332Z,10.65
2023-05-03T06:31:04.524Z,9.82
2023-05-03T06:33:39.177Z,13.45
2023-05-03T06:36:11.173Z,9.25
2023-05-03T06:38:44.043Z,11.57
2023-05-03T06:41:16.184Z,12.70
2023-05-03T06:43:48.227Z,13.70
2023-05-03T06:46:20.627Z,9.65
2023-05-03T06:48:58.179Z,11.65
2023-05-03T06:51:32.434Z,11.15
2023-05-03T06:54:10.155Z,10.43
2023-05-03T06:56:42.225Z,13.57
2023-05-03T06:59:14.299Z,11.45
2023-05-03T07:01:47.290Z,13.75
2023-05-03T07:04:22.012Z,10.38
2023-05-03T07:06:56.738Z,13.52
2023-05-03T07:09:42.116Z,11.23
2023-05-03T07:12:16.590Z,13.63
2023-05-03T07:14:48.727Z,10.13
2023-05-03T07:17:22.029Z,11.30
2023-05-03T07:19:57.900Z,9.65
2023-05-03T07:22:29.924Z,15.20
2023-05-03T07:25:02.148Z,11.32
2023-05-03T07:27:34.294Z,12.20
2023-05-03T07:30:08.223Z,8.95
2023-05-03T07:32:40.418Z,10.57
2023-05-03T07:35:15.603Z,12.15
2023-05-03T07:37:47.648Z,12.38
2023-05-03T07:40:19.764Z,13.27
2023-05-03T07:42:51.949Z,10.88
2023-05-03T07:45:24.023Z,10.38
2023-05-03T07:47:59.279Z,8.60
2023-05-03T07:50:37.190Z,11.20
2023-05-03T07:53:09.311Z,11.25
2023-05-03T07:55:41.727Z,10.13
2023-05-03T07:58:13.792Z,11.65
2023-05-03T08:00:46.055Z,10.52
2023-05-03T08:03:18.280Z,11.55
2023-05-03T08:05:53.134Z,12.77
2023-05-03T08:08:25.255Z,11.48
2023-05-03T08:10:57.294Z,9.50
2023-05-03T08:13:29.317Z,12.90
2023-05-03T08:16:01.512Z,12.88
2023-05-03T08:18:33.549Z,9.60
2023-05-03T08:21:10.564Z,9.18
2023-05-03T08:23:43.231Z,11.00
2023-05-03T08:26:15.753Z,8.90
2023-05-03T08:28:47.937Z,15.00
2023-05-03T08:31:20.153Z,10.45
2023-05-03T08:33:52.233Z,10.02
2023-05-03T08:36:26.994Z,8.70
2023-05-03T08:38:59.227Z,12.82
2023-05-03T08:41:32.038Z,10.02
2023-05-03T08:44:05.701Z,8.80
2023-05-03T08:46:38.486Z,10.55
2023-05-03T08:49:12.759Z,10.45
2023-05-03T08:51:49.774Z,9.57
2023-05-03T08:54:22.216Z,11.85
2023-05-03T08:56:54.276Z,10.32
2023-05-03T08:59:27.612Z,15.50
2023-05-03T09:02:00.404Z,9.45
2023-05-03T09:04:34.860Z,10.57
2023-05-03T09:07:13.535Z,9.63
2023-05-03T09:09:47.252Z,10.60
2023-05-03T09:12:36.320Z,10.75
2023-05-03T09:15:17.001Z,9.25
2023-05-03T09:18:07.724Z,9.75
2023-05-03T09:20:42.016Z,9.95
2023-05-03T09:23:17.162Z,9.75
2023-05-03T09:25:51.617Z,10.40
2023-05-03T09:28:24.037Z,10.77
2023-05-03T09:31:11.420Z,9.32
2023-05-03T09:33:44.895Z,9.73
2023-05-03T09:36:17.773Z,9.80
2023-05-03T09:38:52.795Z,8.77
2023-05-03T09:41:29.146Z,8.77
2023-05-03T09:44:03.187Z,10.27
2023-05-03T09:46:35.572Z,9.93
2023-05-03T09:49:07.738Z,9.13
2023-05-03T09:51:41.788Z,9.38
2023-05-03T09:54:16.900Z,10.43
2023-05-03T09:56:49.570Z,11.18
2023-05-03T09:59:21.656Z,8.60
2023-05-03T10:01:58.895Z,10.32
2023-05-03T10:04:39.838Z,8.95
2023-05-03T10:07:14.896Z,8.98
2023-05-03T10:09:49.921Z,11.20
2023-05-03T10:12:22.518Z,8.95
2023-05-03T10:14:57.036Z,9.68
2023-05-03T10:17:47.315Z,9.50
2023-05-03T10:20:27.340Z,11.32
2023-05-03T10:23:11.001Z,11.57
2023-05-03T10:26:19.921Z,11.27
2023-05-03T10:28:52.076Z,8.30
2023-05-03T10:31:45.772Z,11.85
2023-05-03T10:34:22.142Z,11.23
2023-05-03T10:36:54.546Z,9.57
2023-05-03T10:39:28.797Z,12.27
2023-05-03T10:42:04.767Z,7.32
2023-05-03T10:44:40.635Z,8.20
2023-05-03T10:47:14.083Z,8.38
2023-05-03T10:49:46.417Z,9.07
2023-05-03T10:52:45.678Z,7.88
2023-05-03T10:55:20.901Z,8.60
2023-05-03T10:57:58.729Z,9.23
2023-05-03T11:00:37.179Z,9.15
2023-05-03T11:03:41.474Z,7.60
2023-05-03T11:06:28.414Z,8.30
2023-05-03T11:09:00.993Z,11.15
2023-05-03T11:11:33.700Z,10.38
2023-05-03T11:14:09.447Z,9.88
2023-05-03T11:16:48.265Z,9.95
2023-05-03T11:19:21.137Z,8.45
2023-05-03T11:21:53.438Z,8.38
2023-05-03T11:24:25.737Z,12.45
2023-05-03T11:26:57.867Z,9.15
2023-05-03T11:29:32.867Z,9.18
2023-05-03T11:32:08.158Z,8.52
2023-05-03T11:34:40.801Z,7.90
2023-05-03T11:37:17.103Z,9.02
2023-05-03T11:39:49.157Z,9.15
2023-05-03T11:42:21.446Z,7.28
2023-05-03T11:44:59.139Z,8.98
2023-05-03T11:47:31.276Z,8.30
2023-05-03T11:50:04.075Z,7.60
2023-05-03T11:52:37.651Z,7.88
2023-05-03T11:55:11.216Z,7.65
2023-05-03T11:57:43.522Z,7.60
2023-05-03T12:00:22.979Z,7.82
2023-05-03T12:02:55.234Z,8.38
2023-05-03T12:05:27.437Z,7.22
2023-05-03T12:08:01.290Z,6.38
2023-05-03T12:10:35.703Z,6.50
2023-05-03T12:13:14.163Z,5.18
2023-05-03T12:16:11.047Z,8.65
2023-05-03T12:18:52.583Z,7.70
2023-05-03T12:21:47.289Z,7.35
2023-05-03T12:24:28.853Z,8.75
2023-05-03T12:27:04.411Z,6.00
2023-05-03T12:29:36.488Z,7.05
2023-05-03T12:32:13.478Z,8.15
2023-05-03T12:34:47.030Z,5.88
2023-05-03T12:37:22.206Z,5.47
2023-05-03T12:40:16.542Z,5.82
2023-05-03T12:42:46.766Z,5.93
2023-05-03T12:45:21.290Z,6.25
2023-05-03T12:47:58.938Z,5.95
2023-05-03T12:50:32.161Z,6.32
2023-05-03T12:53:08.440Z,6.55
2023-05-03T12:55:43.918Z,5.35
2023-05-03T13:03:33.940Z,5.00
2023-05-03T13:06:13.299Z,5.43
2023-05-03T13:08:50.207Z,4.40
2023-05-03T13:11:25.050Z,7.47
2023-05-03T13:14:00.006Z,5.03
2023-05-03T13:16:32.542Z,5.15
2023-05-03T13:19:07.655Z,4.75
2023-05-03T13:21:39.880Z,5.90
2023-05-03T13:24:14.646Z,4.88
2023-05-03T13:26:47.161Z,4.10
2023-05-03T13:29:19.211Z,3.65
2023-05-03T13:31:55.286Z,4.25
2023-05-03T13:34:29.992Z,6.13
2023-05-03T13:37:02.448Z,4.45
2023-05-03T13:39:40.059Z,4.47
2023-05-03T13:49:45.730Z,4.43
2023-05-03T14:02:15.834Z,7.00
2023-05-03T14:03:35.168Z,3.42
2023-05-03T14:07:55.101Z,5.20
2023-05-03T14:10:00.725Z,5.72
2023-05-03T14:12:36.752Z,5.57
2023-05-03T14:15:09.759Z,3.13
2023-05-03T14:17:43.764Z,4.63
2023-05-03T14:20:17.772Z,3.38
2023-05-03T14:22:50.889Z,3.30
2023-05-03T14:25:26.511Z,5.80
2023-05-03T14:27:59.761Z,4.32
2023-05-03T14:30:32.732Z,2.78
2023-05-03T14:33:05.264Z,3.95
2023-05-03T14:35:40.240Z,3.67
2023-05-03T14:38:12.377Z,5.10
2023-05-03T14:40:54.092Z,3.65
2023-05-03T14:43:26.208Z,3.53
2023-05-03T14:45:58.285Z,3.53
2023-05-03T14:48:30.763Z,2.88
2023-05-03T14:51:02.779Z,5.97
2023-05-03T14:53:35.834Z,10.20
2023-05-03T14:56:13.682Z,3.42
2023-05-03T14:58:45.742Z,6.80
2023-05-03T15:01:18.657Z,5.38
2023-05-03T15:03:50.823Z,3.47
2023-05-03T15:06:24.555Z,4.03
2023-05-03T15:08:56.981Z,2.88
2023-05-03T15:11:31.618Z,5.70
2023-05-03T15:14:03.761Z,3.85
2023-05-03T15:16:37.306Z,2.92
2023-05-03T15:19:09.587Z,4.28
2023-05-03T15:21:46.175Z,2.80
2023-05-03T15:24:18.596Z,4.38
2023-05-03T15:26:53.317Z,2.80
2023-05-03T15:29:25.462Z,3.88
2023-05-03T15:31:57.505Z,3.08
2023-05-03T15:34:29.827Z,3.08
2023-05-03T15:37:01.949Z,3.42
2023-05-03T15:39:34.049Z,3.10
2023-05-03T15:42:08.950Z,4.20
2023-05-03T15:44:41.084Z,6.28
2023-05-03T15:47:13.199Z,3.72
2023-05-03T15:49:45.363Z,20.90
2023-05-03T15:52:17.408Z,3.95
2023-05-03T15:54:49.450Z,3.25
2023-05-03T15:57:24.644Z,2.58
2023-05-03T15:59:56.834Z,4.75
2023-05-03T16:02:28.902Z,5.18
2023-05-03T16:05:01.188Z,3.65
2023-05-03T16:07:33.230Z,4.03
2023-05-03T16:10:06.920Z,3.58
2023-05-03T16:12:42.918Z,3.60
2023-05-03T16:15:16.463Z,2.70
2023-05-03T16:17:49.519Z,2.25
2023-05-03T16:20:21.784Z,2.40
2023-05-03T16:22:54.067Z,3.47
2023-05-03T16:25:26.659Z,1.98
2023-05-03T16:28:03.282Z,3.80
2023-05-03T16:30:35.591Z,2.03
2023-05-03T16:33:08.149Z,2.80
2023-05-03T16:35:41.666Z,3.45
2023-05-03T16:38:13.799Z,2.80
2023-05-03T16:40:46.468Z,2.75
2023-05-03T16:43:21.214Z,4.75
2023-05-03T16:45:57.127Z,3.15
2023-05-03T16:48:30.218Z,2.28
2023-05-03T16:51:02.509Z,2.80
2023-05-03T16:53:34.677Z,4.65
2023-05-03T16:56:07.049Z,3.58
2023-05-03T16:58:41.749Z,3.25
2023-05-03T17:01:14.611Z,5.13
2023-05-03T17:03:46.896Z,5.03
2023-05-03T17:06:19.870Z,3.38
2023-05-03T17:08:51.924Z,2.95
2023-05-03T17:11:24.033Z,2.67
2023-05-03T17:14:00.878Z,4.40
2023-05-03T17:16:33.090Z,2.33
2023-05-03T17:19:05.248Z,2.15
2023-05-03T17:21:37.635Z,2.50
2023-05-03T17:24:09.749Z,3.25
2023-05-03T17:26:41.840Z,3.35
2023-05-03T17:29:16.843Z,3.15
2023-05-03T17:31:49.190Z,4.10
2023-05-03T17:34:22.505Z,2.65
2023-05-03T17:36:57.691Z,3.67
2023-05-03T17:39:29.821Z,3.17
2023-05-03T17:42:01.987Z,2.35
2023-05-03T17:44:36.852Z,2.63
2023-05-03T17:47:10.418Z,4.70
2023-05-03T17:49:42.580Z,4.32
2023-05-03T17:52:14.653Z,1.92
2023-05-03T17:54:47.116Z,2.08
2023-05-03T17:57:22.179Z,2.85
2023-05-03T17:59:56.816Z,1.95
2023-05-03T18:02:30.116Z,3.92
2023-05-03T18:05:02.986Z,2.70
2023-05-03T18:07:35.222Z,2.63
2023-05-03T18:10:09.859Z,2.95
2023-05-03T18:12:42.038Z,2.35
2023-05-03T18:15:17.867Z,3.80
2023-05-03T18:17:49.980Z,1.83
2023-05-03T18:20:22.340Z,2.95
2023-05-03T18:22:54.442Z,2.90
2023-05-03T18:25:26.639Z,3.08
2023-05-03T18:27:58.750Z,4.03
2023-05-03T18:30:33.531Z,5.97
2023-05-03T18:33:06.544Z,2.85
2023-05-03T18:35:39.152Z,3.72
2023-05-03T18:38:11.221Z,2.95
2023-05-03T18:40:46.016Z,4.05
2023-05-03T18:43:18.151Z,2.17
2023-05-03T18:45:52.909Z,4.47
2023-05-03T18:48:25.078Z,5.68
2023-05-03T18:51:02.303Z,2.10
2023-05-03T18:53:34.667Z,3.30
2023-05-03T18:56:06.829Z,2.40
2023-05-03T18:58:38.955Z,3.47
2023-05-03T19:01:13.850Z,3.00
2023-05-03T19:03:46.100Z,3.67
2023-05-03T19:06:18.968Z,3.60
2023-05-03T19:08:51.126Z,2.63
2023-05-03T19:11:25.128Z,2.97
2023-05-03T19:13:57.390Z,3.33
2023-05-03T19:16:33.324Z,2.80
2023-05-03T19:19:05.453Z,2.70
2023-05-03T19:21:42.161Z,3.58
2023-05-03T19:24:15.370Z,4.25
2023-05-03T19:26:47.466Z,69.03
2023-05-03T19:29:19.639Z,33.35
2023-05-03T19:31:57.927Z,5.70
2023-05-03T19:34:30.028Z,4.40
2023-05-03T19:37:02.261Z,3.17
2023-05-03T19:39:37.861Z,4.10
2023-05-03T19:42:09.921Z,4.22
2023-05-03T19:44:42.023Z,4.45
2023-05-03T19:47:17.014Z,2.97
2023-05-03T19:49:49.113Z,3.33
2023-05-03T19:52:21.283Z,4.35
2023-05-03T19:54:53.378Z,2.85
2023-05-03T19:57:25.904Z,2.80
2023-05-03T19:59:57.955Z,3.97
2023-05-03T20:02:32.759Z,2.80
2023-05-03T20:05:05.956Z,2.75
2023-05-03T20:07:38.047Z,3.25
2023-05-03T20:10:10.690Z,3.63
2023-05-03T20:12:42.978Z,2.83
2023-05-03T20:15:15.327Z,2.97
2023-05-03T20:17:50.032Z,1.92
2023-05-03T20:20:22.198Z,3.80
2023-05-03T20:22:54.368Z,2.28
2023-05-03T20:25:26.668Z,4.35
2023-05-03T20:27:58.771Z,2.35
2023-05-03T20:30:31.930Z,8.05
2023-05-03T20:33:06.789Z,3.88
2023-05-03T20:35:39.156Z,3.30
2023-05-03T20:38:11.564Z,3.10
